createdAt,value
2019-04-07T00:00:42.620Z,18.00
2019-04-07T00:03:43.663Z,16.97
2019-04-07T00:06:25.896Z,15.37
2019-04-07T00:09:35.540Z,15.27
2019-04-07T00:12:41.270Z,14.17
2019-04-07T00:15:23.185Z,14.10
2019-04-07T00:18:09.517Z,15.97
2019-04-07T00:20:55.197Z,15.33
2019-04-07T00:23:41.715Z,16.00
2019-04-07T00:26:23.910Z,15.47
2019-04-07T00:29:15.563Z,14.60
2019-04-07T00:31:57.524Z,13.60
2019-04-07T00:34:47.131Z,12.57
2019-04-07T00:37:27.463Z,15.07
2019-04-07T00:40:08.685Z,19.63
2019-04-07T00:42:51.249Z,18.53
2019-04-07T00:45:33.778Z,22.17
2019-04-07T00:48:17.152Z,18.93
2019-04-07T00:51:02.025Z,18.50
2019-04-07T00:53:44.312Z,17.40
2019-04-07T00:56:26.949Z,16.77
2019-04-07T00:59:07.618Z,17.40
2019-04-07T01:01:57.957Z,17.50
2019-04-07T01:04:48.248Z,18.47
2019-04-07T01:07:29.989Z,16.37
2019-04-07T01:10:08.883Z,16.67
2019-04-07T01:12:50.102Z,17.17
2019-04-07T01:15:35.663Z,18.63
2019-04-07T01:18:26.961Z,18.93
2019-04-07T01:21:13.838Z,19.90
2019-04-07T01:23:57.837Z,21.03
2019-04-07T01:26:44.950Z,19.90
2019-04-07T01:29:35.333Z,18.60
2019-04-07T01:32:16.725Z,19.23
2019-04-07T01:34:57.039Z,20.70
2019-04-07T01:37:40.726Z,21.53
2019-04-07T01:40:31.137Z,19.57
2019-04-07T01:43:22.691Z,20.90
2019-04-07T01:46:09.936Z,19.93
2019-04-07T01:48:59.553Z,20.00
2019-04-07T01:52:04.169Z,19.17
2019-04-07T01:54:47.257Z,18.07
2019-04-07T01:57:49.849Z,19.70
2019-04-07T02:00:43.390Z,21.87
2019-04-07T02:03:35.693Z,20.43
2019-04-07T02:06:33.334Z,24.70
2019-04-07T02:09:15.193Z,27.03
2019-04-07T02:12:04.773Z,24.30
2019-04-07T02:15:01.063Z,22.20
2019-04-07T02:17:47.148Z,18.67
2019-04-07T02:20:46.572Z,19.13
2019-04-07T02:23:37.335Z,18.60
2019-04-07T02:26:22.670Z,18.43
2019-04-07T02:29:11.860Z,20.23
2019-04-07T02:31:50.068Z,20.80
2019-04-07T02:34:38.067Z,21.57
2019-04-07T02:37:39.386Z,20.23
2019-04-07T02:40:43.429Z,19.67
2019-04-07T02:43:34.154Z,19.93
2019-04-07T02:46:33.444Z,19.90
2019-04-07T02:49:28.519Z,19.93
2019-04-07T02:52:19.294Z,18.30
2019-04-07T02:55:06.284Z,19.17
2019-04-07T02:58:04.655Z,22.67
2019-04-07T03:00:48.520Z,20.50
2019-04-07T03:03:34.901Z,20.47
2019-04-07T03:06:45.785Z,24.93
2019-04-07T03:09:21.841Z,25.57
2019-04-07T03:12:13.773Z,23.30
2019-04-07T03:15:11.850Z,21.37
2019-04-07T03:18:01.149Z,18.87
2019-04-07T03:20:56.069Z,19.50
2019-04-07T03:23:51.461Z,17.97
2019-04-07T03:26:33.674Z,19.17
2019-04-07T03:29:38.412Z,20.50
2019-04-07T03:32:38.864Z,18.47
2019-04-07T03:35:25.952Z,18.87
2019-04-07T03:38:19.199Z,19.40
2019-04-07T03:41:16.238Z,23.43
2019-04-07T03:44:03.328Z,20.33
2019-04-07T03:47:05.240Z,20.57
2019-04-07T03:49:47.820Z,18.13
2019-04-07T03:52:33.989Z,19.80
2019-04-07T03:55:15.266Z,18.53
2019-04-07T03:58:19.687Z,19.80
2019-04-07T04:01:21.952Z,19.20
2019-04-07T04:04:02.210Z,20.07
2019-04-07T04:06:51.518Z,20.43
2019-04-07T04:09:41.280Z,23.43
2019-04-07T04:12:39.954Z,23.93
2019-04-07T04:15:22.111Z,22.27
2019-04-07T04:17:59.518Z,19.70
2019-04-07T04:20:37.273Z,21.53
2019-04-07T04:23:17.830Z,24.63
2019-04-07T04:26:09.659Z,23.03
2019-04-07T04:28:56.572Z,21.47
2019-04-07T04:31:37.129Z,22.80
2019-04-07T04:34:27.936Z,23.57
2019-04-07T04:37:12.581Z,22.10
2019-04-07T04:40:07.581Z,22.77
2019-04-07T04:42:52.088Z,22.93
2019-04-07T04:45:40.539Z,24.73
2019-04-07T04:48:20.659Z,26.47
2019-04-07T04:50:59.883Z,24.30
2019-04-07T04:53:45.583Z,22.00
2019-04-07T04:56:37.778Z,29.07
2019-04-07T04:59:24.055Z,24.30
2019-04-07T05:02:03.266Z,26.27
2019-04-07T05:04:40.622Z,26.03
2019-04-07T05:07:19.731Z,21.80
2019-04-07T05:10:00.005Z,21.83
2019-04-07T05:12:37.931Z,20.10
2019-04-07T05:15:15.087Z,19.30
2019-04-07T05:17:52.249Z,20.27
2019-04-07T05:20:29.427Z,19.60
2019-04-07T05:23:06.518Z,18.40
2019-04-07T05:25:43.794Z,17.63
2019-04-07T05:28:21.239Z,18.60
2019-04-07T05:30:59.080Z,19.37
2019-04-07T05:33:36.672Z,20.47
2019-04-07T05:36:14.743Z,22.27
2019-04-07T05:38:52.034Z,23.83
2019-04-07T05:41:29.619Z,24.07
2019-04-07T05:44:06.734Z,27.10
2019-04-07T05:46:46.389Z,26.20
2019-04-07T05:49:27.047Z,23.70
2019-04-07T05:52:06.925Z,25.47
2019-04-07T05:54:49.561Z,26.23
2019-04-07T05:57:30.782Z,28.00
2019-04-07T06:00:14.586Z,28.30
2019-04-07T06:02:50.783Z,27.80
2019-04-07T06:05:28.160Z,30.83
2019-04-07T06:08:21.040Z,29.73
2019-04-07T06:10:44.637Z,29.70
2019-04-07T06:13:22.469Z,32.20
2019-04-07T06:15:59.730Z,34.70
2019-04-07T06:18:36.927Z,34.57
2019-04-07T06:21:15.509Z,35.17
2019-04-07T06:23:55.361Z,31.20
2019-04-07T06:26:33.038Z,31.40
2019-04-07T06:29:10.489Z,33.10
2019-04-07T06:31:48.304Z,31.07
2019-04-07T06:34:28.134Z,33.20
2019-04-07T06:37:05.656Z,37.30
2019-04-07T06:39:42.825Z,35.60
2019-04-07T06:42:22.039Z,34.37
2019-04-07T06:45:00.387Z,33.53
2019-04-07T06:47:39.772Z,33.83
2019-04-07T06:50:18.978Z,33.50
2019-04-07T06:53:01.071Z,31.27
2019-04-07T06:55:51.578Z,32.17
2019-04-07T06:58:31.052Z,33.80
2019-04-07T07:01:26.629Z,29.33
2019-04-07T07:04:21.135Z,29.97
2019-04-07T07:07:00.590Z,29.70
2019-04-07T07:09:42.806Z,25.40
2019-04-07T07:12:35.013Z,27.30
2019-04-07T07:15:19.144Z,27.23
2019-04-07T07:18:15.441Z,27.07
2019-04-07T07:21:01.000Z,30.07
2019-04-07T07:23:38.582Z,27.40
2019-04-07T07:26:15.962Z,29.67
2019-04-07T07:28:53.126Z,29.10
2019-04-07T07:31:30.355Z,32.27
2019-04-07T07:34:09.275Z,34.07
2019-04-07T07:36:47.078Z,31.90
2019-04-07T07:39:26.253Z,35.23
2019-04-07T07:42:28.912Z,32.90
2019-04-07T07:45:11.842Z,31.13
2019-04-07T07:47:51.348Z,30.70
2019-04-07T07:50:30.048Z,31.73
2019-04-07T07:53:07.905Z,30.47
2019-04-07T07:55:45.559Z,30.57
2019-04-07T07:58:23.583Z,33.70
2019-04-07T08:01:01.470Z,31.17
2019-04-07T08:03:39.334Z,33.33
2019-04-07T08:06:19.409Z,27.70
2019-04-07T08:09:07.410Z,25.33
2019-04-07T08:11:37.301Z,26.33
2019-04-07T08:14:17.792Z,27.80
2019-04-07T08:16:55.878Z,26.60
2019-04-07T08:19:33.563Z,24.90
2019-04-07T08:22:11.644Z,23.05
2019-04-07T08:24:51.138Z,23.55
2019-04-07T08:27:31.222Z,26.75
2019-04-07T09:00:33.628Z,26.27
2019-04-07T09:03:16.374Z,27.80
2019-04-07T09:05:57.386Z,27.57
2019-04-07T09:08:40.998Z,28.87
2019-04-07T09:11:22.470Z,26.97
2019-04-07T09:14:04.233Z,26.87
2019-04-07T09:16:59.868Z,27.60
2019-04-07T09:19:48.050Z,30.10
2019-04-07T09:22:33.074Z,30.50
2019-04-07T09:27:54.022Z,30.23
2019-04-07T09:30:48.470Z,25.80
2019-04-07T09:33:30.866Z,25.23
2019-04-07T09:36:19.553Z,25.57
2019-04-07T09:39:01.861Z,28.10
2019-04-07T09:41:48.556Z,25.77
2019-04-07T09:44:34.207Z,23.43
2019-04-07T09:47:29.210Z,26.80
2019-04-07T09:50:32.907Z,26.97
2019-04-07T09:53:21.390Z,26.20
2019-04-07T09:56:08.604Z,27.27
2019-04-07T09:58:50.285Z,29.63
2019-04-07T10:01:29.765Z,29.83
2019-04-07T10:04:08.755Z,27.97
2019-04-07T10:06:49.635Z,27.73
2019-04-07T10:09:28.603Z,28.70
2019-04-07T10:12:16.174Z,27.40
2019-04-07T10:14:59.748Z,27.77
2019-04-07T10:17:43.635Z,26.27
2019-04-07T10:20:36.943Z,26.90
2019-04-07T10:23:25.279Z,28.33
2019-04-07T10:26:04.232Z,28.43
2019-04-07T10:28:44.102Z,28.77
2019-04-07T10:31:40.910Z,24.27
2019-04-07T10:34:37.465Z,24.90
2019-04-07T10:37:19.766Z,25.43
2019-04-07T10:40:21.824Z,23.37
2019-04-07T10:43:08.481Z,24.97
2019-04-07T10:46:20.331Z,23.40
2019-04-07T10:49:18.068Z,25.67
2019-04-07T10:52:16.964Z,25.50
2019-04-07T10:55:33.028Z,25.20
2019-04-07T10:58:29.680Z,26.60
2019-04-07T11:01:24.535Z,26.43
2019-04-07T11:04:03.893Z,26.37
2019-04-07T11:06:54.851Z,25.57
2019-04-07T11:09:49.935Z,22.67
2019-04-07T11:12:28.855Z,22.50
2019-04-07T11:15:23.692Z,25.13
2019-04-07T11:18:17.481Z,25.47
2019-04-07T11:21:05.242Z,24.13
2019-04-07T11:23:50.407Z,22.90
2019-04-07T11:26:35.300Z,21.47
2019-04-07T11:29:17.730Z,20.73
2019-04-07T11:32:12.897Z,21.97
2019-04-07T11:35:00.323Z,18.87
2019-04-07T11:37:42.770Z,20.17
2019-04-07T11:40:45.250Z,20.82
2019-04-07T11:43:35.925Z,19.82
2019-04-07T11:46:22.048Z,20.43
2019-04-07T11:49:19.509Z,23.20
2019-04-07T11:52:08.236Z,20.30
2019-04-07T11:54:49.981Z,19.27
2019-04-07T11:57:29.053Z,20.08
2019-04-07T12:00:12.904Z,19.37
2019-04-07T12:02:59.544Z,23.67
2019-04-07T12:05:40.807Z,20.72
2019-04-07T12:08:35.206Z,21.10
2019-04-07T12:11:37.174Z,21.57
2019-04-07T12:14:25.641Z,19.65
2019-04-07T12:17:09.326Z,19.73
2019-04-07T12:19:58.057Z,18.57
2019-04-07T12:22:49.358Z,18.87
2019-04-07T12:25:38.455Z,22.55
2019-04-07T12:28:41.258Z,22.62
2019-04-07T12:31:29.556Z,21.62
2019-04-07T12:34:16.751Z,18.62
2019-04-07T12:40:22.251Z,18.27
2019-04-07T12:42:59.875Z,21.48
2019-04-07T12:45:59.360Z,20.68
2019-04-07T12:49:09.827Z,22.50
2019-04-07T12:51:54.993Z,22.27
2019-04-07T12:54:41.387Z,23.02
2019-04-07T12:57:18.835Z,24.07
2019-04-07T13:00:14.645Z,22.85
2019-04-07T13:03:02.871Z,23.50
2019-04-07T13:05:44.986Z,22.17
2019-04-07T13:08:30.581Z,23.07
2019-04-07T13:11:26.437Z,22.70
2019-04-07T13:14:12.113Z,22.93
2019-04-07T13:17:00.186Z,23.23
2019-04-07T13:19:41.828Z,21.85
2019-04-07T13:22:20.424Z,22.10
2019-04-07T13:25:18.809Z,22.50
2019-04-07T13:28:03.183Z,21.37
2019-04-07T13:30:43.315Z,22.50
2019-04-07T13:33:27.156Z,22.87
2019-04-07T13:36:03.228Z,21.70
2019-04-07T13:38:43.046Z,21.27
2019-04-07T13:41:38.719Z,22.13
2019-04-07T13:44:16.190Z,23.17
2019-04-07T13:47:08.571Z,20.88
2019-04-07T13:49:48.548Z,20.08
2019-04-07T13:52:42.519Z,16.80
2019-04-07T13:55:34.710Z,17.12
2019-04-07T13:58:20.848Z,18.50
2019-04-07T14:01:18.576Z,18.77
2019-04-07T14:04:08.981Z,18.00
2019-04-07T14:06:50.584Z,18.75
2019-04-07T14:09:32.600Z,17.60
2019-04-07T14:12:18.060Z,17.00
2019-04-07T14:15:14.202Z,18.17
2019-04-07T14:17:53.635Z,18.87
2019-04-07T14:20:36.440Z,17.87
2019-04-07T14:23:22.526Z,18.87
2019-04-07T14:26:03.546Z,19.35
2019-04-07T14:28:43.983Z,18.77
2019-04-07T14:31:39.020Z,16.85
2019-04-07T14:34:18.792Z,19.65
2019-04-07T14:36:57.861Z,18.42
2019-04-07T14:39:53.430Z,17.98
2019-04-07T14:42:39.541Z,18.12
2019-04-07T14:45:30.649Z,18.48
2019-04-07T14:48:29.415Z,19.10
2019-04-07T14:51:08.752Z,19.70
2019-04-07T14:53:54.075Z,19.48
2019-04-07T14:56:50.195Z,18.65
2019-04-07T14:59:35.118Z,18.32
2019-04-07T15:02:15.473Z,18.80
2019-04-07T15:04:58.369Z,19.17
2019-04-07T15:07:40.862Z,19.45
2019-04-07T15:10:20.497Z,18.07
2019-04-07T15:13:03.214Z,18.80
2019-04-07T15:15:41.789Z,19.45
2019-04-07T15:18:19.769Z,16.35
2019-04-07T15:20:57.303Z,19.30
2019-04-07T15:23:34.545Z,18.27
2019-04-07T15:26:14.506Z,18.82
2019-04-07T15:28:51.185Z,22.27
2019-04-07T15:31:28.530Z,19.30
2019-04-07T15:34:08.665Z,18.40
2019-04-07T15:36:48.033Z,18.75
2019-04-07T15:39:28.006Z,20.05
2019-04-07T15:42:05.206Z,18.05
2019-04-07T15:44:43.656Z,17.67
2019-04-07T15:47:22.220Z,18.27
2019-04-07T15:50:00.445Z,17.35
2019-04-07T15:52:43.709Z,17.57
2019-04-07T15:55:19.534Z,18.15
2019-04-07T15:57:58.412Z,17.57
2019-04-07T16:00:36.129Z,18.27
2019-04-07T16:03:16.642Z,17.70
2019-04-07T16:05:56.415Z,18.30
2019-04-07T16:08:33.815Z,17.00
2019-04-07T16:11:11.541Z,18.12
2019-04-07T16:13:49.526Z,18.23
2019-04-07T16:16:29.145Z,17.65
2019-04-07T16:19:06.743Z,18.87
2019-04-07T16:21:45.517Z,16.52
2019-04-07T16:24:25.836Z,17.37
2019-04-07T16:27:06.541Z,15.72
2019-04-07T16:29:46.140Z,16.20
2019-04-07T16:32:24.188Z,17.17
2019-04-07T16:35:01.724Z,17.05
2019-04-07T16:37:39.458Z,18.57
2019-04-07T16:40:18.417Z,17.02
2019-04-07T16:43:09.292Z,15.48
2019-04-07T16:45:34.746Z,16.77
2019-04-07T16:48:12.876Z,16.70
2019-04-07T16:50:53.678Z,16.23
2019-04-07T16:53:30.929Z,16.35
2019-04-07T16:56:08.936Z,15.47
2019-04-07T16:58:50.185Z,15.47
2019-04-07T17:01:31.698Z,16.07
2019-04-07T17:04:09.731Z,16.17
2019-04-07T17:06:59.111Z,18.77
2019-04-07T17:09:29.106Z,16.90
2019-04-07T17:12:10.961Z,18.27
2019-04-07T17:14:49.215Z,18.07
2019-04-07T17:17:27.111Z,16.33
2019-04-07T17:20:06.952Z,17.77
2019-04-07T17:22:48.186Z,18.07
2019-04-07T17:25:25.563Z,19.87
2019-04-07T17:28:04.047Z,19.33
2019-04-07T17:30:41.747Z,16.50
2019-04-07T17:33:20.908Z,15.23
2019-04-07T17:35:59.165Z,15.63
2019-04-07T17:38:41.197Z,16.87
2019-04-07T17:41:21.445Z,17.00
2019-04-07T17:44:03.055Z,17.67
2019-04-07T17:46:57.896Z,16.73
2019-04-07T17:49:44.188Z,16.70
2019-04-07T17:52:32.252Z,16.87
2019-04-07T17:55:29.929Z,16.87
2019-04-07T17:58:17.896Z,17.63
2019-04-07T18:00:56.752Z,19.10
2019-04-07T18:03:51.924Z,17.70
2019-04-07T18:06:36.639Z,19.60
2019-04-07T18:09:30.950Z,20.80
2019-04-07T18:12:13.891Z,20.50
2019-04-07T18:14:57.049Z,21.83
2019-04-07T18:17:37.494Z,22.33
2019-04-07T18:20:17.865Z,25.47
2019-04-07T18:23:14.864Z,26.10
2019-04-07T18:26:14.432Z,25.80
2019-04-07T18:28:58.482Z,24.13
2019-04-07T18:31:55.631Z,24.60
2019-04-07T18:34:33.836Z,27.90
2019-04-07T18:37:29.046Z,31.57
2019-04-07T18:40:28.240Z,31.97
2019-04-07T18:43:08.037Z,34.77
2019-04-07T18:45:54.645Z,35.03
2019-04-07T18:48:45.841Z,39.27
2019-04-07T18:51:47.138Z,38.13
2019-04-07T18:54:23.115Z,38.47
2019-04-07T18:57:20.557Z,36.03
2019-04-07T19:00:14.856Z,35.83
2019-04-07T19:03:14.412Z,38.27
2019-04-07T19:05:54.222Z,31.50
2019-04-07T19:08:46.310Z,31.13
2019-04-07T19:11:42.780Z,27.33
2019-04-07T19:14:44.276Z,27.37
2019-04-07T19:17:21.701Z,27.93
2019-04-07T19:20:05.277Z,29.53
2019-04-07T19:22:58.214Z,30.63
2019-04-07T19:25:44.436Z,29.13
2019-04-07T19:28:37.181Z,30.97
2019-04-07T19:31:22.198Z,34.57
2019-04-07T19:34:02.312Z,32.20
2019-04-07T19:36:58.522Z,31.77
2019-04-07T19:39:43.818Z,39.03
2019-04-07T19:42:32.874Z,37.33
2019-04-07T19:45:30.699Z,34.13
2019-04-07T19:48:43.651Z,39.33
2019-04-07T19:51:34.475Z,39.57
2019-04-07T19:54:18.045Z,34.47
2019-04-07T19:57:05.935Z,31.90
2019-04-07T20:00:02.566Z,31.83
2019-04-07T20:02:44.643Z,32.37
2019-04-07T20:05:23.968Z,31.10
2019-04-07T20:08:05.760Z,32.50
2019-04-07T20:10:44.757Z,32.67
2019-04-07T20:13:40.631Z,37.20
2019-04-07T20:16:24.166Z,41.80
2019-04-07T20:19:06.591Z,43.07
2019-04-07T20:21:49.410Z,43.00
2019-04-07T20:24:47.371Z,43.13
2019-04-07T20:27:34.170Z,41.33
2019-04-07T20:30:16.208Z,40.80
2019-04-07T20:33:16.342Z,37.37
2019-04-07T20:35:57.454Z,38.10
2019-04-07T20:38:58.513Z,36.30
2019-04-07T20:41:54.916Z,36.47
2019-04-07T20:44:39.126Z,37.13
2019-04-07T20:47:26.681Z,37.77
2019-04-07T20:50:15.301Z,41.17
2019-04-07T20:53:10.119Z,44.77
2019-04-07T20:55:51.862Z,47.27
2019-04-07T20:58:53.022Z,47.07
2019-04-07T21:01:36.988Z,45.00
2019-04-07T21:04:19.936Z,36.60
2019-04-07T21:07:08.273Z,32.00
2019-04-07T21:09:48.030Z,43.90
2019-04-07T21:12:31.078Z,42.33
2019-04-07T21:15:21.249Z,42.87
2019-04-07T21:17:58.253Z,45.50
2019-04-07T21:20:41.989Z,43.67
2019-04-07T21:23:20.873Z,46.47
2019-04-07T21:26:00.357Z,46.47
2019-04-07T21:28:40.657Z,48.43
2019-04-07T21:31:35.225Z,42.87
2019-04-07T21:34:30.604Z,46.37
2019-04-07T21:37:27.338Z,41.10
2019-04-07T21:40:13.211Z,39.83
2019-04-07T21:43:11.402Z,44.50
2019-04-07T21:46:02.500Z,48.93
2019-04-07T21:48:41.608Z,54.90
2019-04-07T21:51:35.618Z,61.60
2019-04-07T21:54:14.508Z,74.93
2019-04-07T21:57:08.825Z,71.57
2019-04-07T22:00:06.140Z,57.63
2019-04-07T22:02:48.311Z,49.43
2019-04-07T22:05:45.390Z,45.60
2019-04-07T22:08:25.216Z,43.00
2019-04-07T22:11:03.610Z,52.63
2019-04-07T22:13:40.774Z,42.27
2019-04-07T22:16:18.567Z,45.63
2019-04-07T22:18:55.582Z,48.90
2019-04-07T22:21:32.778Z,51.33
2019-04-07T22:24:11.005Z,57.90
2019-04-07T22:26:50.191Z,61.60
2019-04-07T22:29:27.604Z,57.73
2019-04-07T22:32:05.323Z,62.40
2019-04-07T22:34:42.471Z,60.87
2019-04-07T22:37:21.155Z,59.03
2019-04-07T22:40:01.754Z,53.90
2019-04-07T22:42:37.199Z,49.70
2019-04-07T22:45:14.922Z,48.23
2019-04-07T22:47:52.860Z,47.03
2019-04-07T22:50:35.495Z,51.17
2019-04-07T22:53:09.557Z,57.63
2019-04-07T22:55:46.666Z,49.13
2019-04-07T22:58:24.263Z,47.43
2019-04-07T23:01:01.386Z,47.70
2019-04-07T23:03:39.109Z,46.37
2019-04-07T23:06:17.061Z,49.37
2019-04-07T23:08:54.266Z,46.77
2019-04-07T23:11:32.036Z,46.83
2019-04-07T23:14:09.539Z,46.83
2019-04-07T23:16:46.577Z,47.30
2019-04-07T23:19:23.743Z,49.00
2019-04-07T23:22:01.469Z,47.10
2019-04-07T23:24:39.046Z,43.73
2019-04-07T23:27:16.230Z,45.47
2019-04-07T23:29:53.346Z,45.27
2019-04-07T23:32:31.165Z,46.83
2019-04-07T23:35:08.401Z,50.87
2019-04-07T23:37:46.801Z,41.83
2019-04-07T23:40:23.872Z,40.07
2019-04-07T23:43:02.790Z,41.20
2019-04-07T23:45:39.983Z,39.00
2019-04-07T23:48:17.932Z,38.67
2019-04-07T23:50:56.310Z,39.30
2019-04-07T23:54:11.141Z,40.50
2019-04-07T23:56:48.326Z,38.90
2019-04-07T23:59:25.471Z,39.30
